Time;durP1;ratioP1;P1;durP2;ratioP2;P2;SDS_P1;SDS_P2;PMS_P1;PMS_P2;Temp;Humidity;BMP_temperature;BMP_pressure;BME280_temperature;BME280_humidity;BME280_pressure;Samples;Min_cycle;Max_cycle;Signal;HPM_P1;HPM_P2
2021/04/03 00:01:15;;;;;;;69.32;33.02;;;;;;;7.75;100.00;98795.45;4403909;79;28602;-88
2021/04/03 00:07:18;;;;;;;71.42;32.63;;;;;;;7.68;100.00;98782.13;4474418;78;28595;-88
2021/04/03 00:13:23;;;;;;;64.65;30.50;;;;;;;7.37;100.00;98768.55;4391718;79;28612;-88
2021/04/03 00:25:38;;;;;;;69.85;32.53;;;;;;;7.63;100.00;98769.41;4431386;79;78498;-87
2021/04/03 00:31:44;;;;;;;72.30;32.98;;;;;;;7.70;100.00;98763.16;4367893;81;28940;-86
2021/04/03 00:37:48;;;;;;;68.25;31.85;;;;;;;7.48;100.00;98756.85;4367276;81;28555;-87
2021/04/03 00:43:50;;;;;;;70.70;32.70;;;;;;;7.30;100.00;98732.20;4365610;81;28540;-87
2021/04/03 00:49:55;;;;;;;66.47;30.75;;;;;;;7.21;100.00;98727.11;4363182;82;28620;-88
2021/04/03 00:56:00;;;;;;;67.95;30.05;;;;;;;7.05;100.00;98731.66;4312565;82;28559;-87
2021/04/03 01:02:05;;;;;;;60.63;27.90;;;;;;;6.83;100.00;98722.65;4293095;83;28638;-87
2021/04/03 01:08:16;;;;;;;68.15;32.08;;;;;;;6.96;100.00;98708.36;4626058;76;75074;-87
2021/04/03 01:14:26;;;;;;;65.45;31.00;;;;;;;6.93;100.00;98709.63;4516794;79;28595;-87
2021/04/03 01:20:56;;;;;;;69.17;31.05;;;;;;;6.81;100.00;98704.14;4499814;79;28574;-86
2021/04/03 01:27:25;;;;;;;66.45;30.15;;;;;;;6.57;100.00;98705.70;4495237;79;28546;-86
2021/04/03 01:33:29;;;;;;;66.15;30.90;;;;;;;6.45;100.00;98708.22;4475093;79;28538;-86
2021/04/03 01:39:35;;;;;;;;;;;;;;;6.17;100.00;98715.21;4515900;79;28593;-87
2021/04/03 01:45:41;;;;;;;57.98;26.77;;;;;;;6.34;100.00;98720.40;4484521;79;20529;-87
2021/04/03 01:51:48;;;;;;;64.03;27.30;;;;;;;6.33;100.00;98708.58;4493012;78;28534;-88
2021/04/03 01:57:55;;;;;;;60.40;28.07;;;;;;;6.34;100.00;98712.39;4508563;78;28580;-87
2021/04/03 02:03:59;;;;;;;61.75;28.95;;;;;;;6.45;100.00;98719.43;4495008;78;28558;-85
2021/04/03 02:10:04;;;;;;;59.58;28.20;;;;;;;6.49;100.00;98712.13;4459375;80;28566;-86
2021/04/03 02:16:11;;;;;;;58.85;26.17;;;;;;;6.34;100.00;98707.55;4416923;80;28552;-86
2021/04/03 02:22:19;;;;;;;57.05;26.07;;;;;;;6.04;100.00;98705.38;4391285;80;28577;-85
2021/04/03 02:28:37;;;;;;;67.63;37.80;;;;;;;6.12;100.00;98707.83;4468403;79;270293;-86
2021/04/03 02:34:40;;;;;;;64.87;31.27;;;;;;;6.89;100.00;98711.61;4322598;81;28962;-89
2021/04/03 02:40:45;;;;;;;61.70;29.87;;;;;;;6.73;100.00;98692.91;4242123;83;28547;-88
2021/04/03 02:47:02;;;;;;;63.55;28.65;;;;;;;6.58;100.00;98686.51;4240676;81;28600;-89
2021/04/03 02:53:13;;;;;;;57.70;27.52;;;;;;;6.42;100.00;98676.60;4317757;80;28576;-89
2021/04/03 02:59:21;;;;;;;57.17;25.62;;;;;;;6.47;100.00;98682.64;4279643;81;28589;-89
2021/04/03 03:05:24;;;;;;;57.45;26.93;;;;;;;6.38;100.00;98684.75;4212104;81;28558;-88
2021/04/03 03:11:28;;;;;;;59.10;28.38;;;;;;;6.41;100.00;98675.80;4263605;81;28636;-88
2021/04/03 03:17:32;;;;;;;66.70;29.10;;;;;;;6.47;100.00;98681.31;4281250;81;28654;-88
2021/04/03 03:23:36;;;;;;;61.85;28.17;;;;;;;6.45;100.00;98684.19;4297721;80;28577;-88
2021/04/03 03:29:41;;;;;;;54.33;24.60;;;;;;;6.52;100.00;98675.63;4249457;81;28557;-88
2021/04/03 03:35:45;;;;;;;60.25;27.20;;;;;;;6.41;100.00;98676.30;4302295;81;28551;-87
2021/04/03 03:41:48;;;;;;;63.98;27.93;;;;;;;6.54;100.00;98672.22;4308456;82;28553;-88
2021/04/03 03:47:50;;;;;;;59.67;28.05;;;;;;;6.61;100.00;98659.36;4251096;83;28559;-89
2021/04/03 03:53:53;;;;;;;61.42;27.02;;;;;;;6.83;100.00;98666.00;4302143;82;28536;-89
2021/04/03 03:59:56;;;;;;;53.45;24.85;;;;;;;6.58;100.00;98665.14;4261212;83;28672;-87
2021/04/03 04:06:00;;;;;;;51.88;24.75;;;;;;;6.81;100.00;98661.89;4310831;81;28595;-92
2021/04/03 04:12:06;;;;;;;57.30;25.57;;;;;;;6.70;100.00;98652.20;4322135;81;28564;-89
2021/04/03 04:18:10;;;;;;;60.85;27.02;;;;;;;6.67;100.00;98651.30;4254942;83;28572;-91
2021/04/03 04:24:13;;;;;;;58.83;27.07;;;;;;;6.45;100.00;98646.80;4320179;81;28583;-90
2021/04/03 04:30:16;;;;;;;58.30;26.80;;;;;;;6.45;100.00;98654.00;4331330;81;28540;-92
2021/04/03 04:36:20;;;;;;;52.75;24.63;;;;;;;6.40;100.00;98648.80;4327746;81;28931;-91
2021/04/03 04:42:23;;;;;;;51.90;24.07;;;;;;;6.49;100.00;98651.20;4328934;81;28576;-92
2021/04/03 04:48:27;;;;;;;54.58;23.90;;;;;;;6.62;100.00;98648.47;4306473;81;28586;-88
2021/04/03 04:54:31;;;;;;;55.15;24.30;;;;;;;6.62;100.00;98644.97;4303873;83;28612;-86
2021/04/03 05:00:35;;;;;;;57.33;25.17;;;;;;;6.81;100.00;98650.70;4362729;81;28932;-87
2021/04/03 05:06:39;;;;;;;50.35;23.22;;;;;;;6.77;100.00;98652.18;4219057;84;28581;-85
2021/04/03 05:12:42;;;;;;;46.65;21.77;;;;;;;6.75;100.00;98662.77;4241348;84;28628;-81
2021/04/03 05:18:44;;;;;;;49.75;23.22;;;;;;;6.90;100.00;98675.30;4227449;84;28613;-88
2021/04/03 05:24:46;;;;;;;45.43;20.70;;;;;;;7.20;100.00;98682.70;4237963;82;28637;-88
2021/04/03 05:30:48;;;;;;;46.98;22.13;;;;;;;7.04;100.00;98690.73;4300646;80;28591;-88
2021/04/03 05:36:53;;;;;;;49.55;22.25;;;;;;;7.47;100.00;98709.74;4261268;83;28845;-90
2021/04/03 05:42:57;;;;;;;49.30;22.47;;;;;;;7.46;100.00;98729.50;4261917;83;34197;-89
2021/04/03 05:49:01;;;;;;;44.03;20.57;;;;;;;7.68;100.00;98729.95;4351175;81;28556;-89
2021/04/03 05:55:05;;;;;;;40.85;20.20;;;;;;;7.79;100.00;98727.05;4276178;81;28578;-89
2021/04/03 06:01:08;;;;;;;45.40;21.50;;;;;;;8.22;100.00;98731.55;4255981;81;28585;-90
2021/04/03 06:07:10;;;;;;;41.10;20.40;;;;;;;8.71;100.00;98744.20;4257421;83;28548;-90
2021/04/03 06:13:18;;;;;;;44.55;21.68;;;;;;;8.64;98.92;98741.61;4286157;83;28625;-91
2021/04/03 06:19:25;;;;;;;40.58;19.45;;;;;;;8.68;98.07;98741.15;4240846;83;28679;-90
2021/04/03 06:25:28;;;;;;;39.60;19.48;;;;;;;8.84;95.73;98751.25;4338742;81;28576;-90
2021/04/03 06:31:36;;;;;;;40.95;20.82;;;;;;;8.89;96.13;98766.13;4309901;82;28582;-90
2021/04/03 06:37:39;;;;;;;40.45;18.77;;;;;;;8.61;95.58;98770.20;4300915;82;28559;-89
2021/04/03 06:43:41;;;;;;;37.95;17.85;;;;;;;8.82;94.23;98772.63;4315137;82;28566;-89
2021/04/03 06:49:45;;;;;;;43.20;21.07;;;;;;;8.69;96.22;98773.60;4345418;82;28602;-88
2021/04/03 06:55:51;;;;;;;38.33;19.52;;;;;;;8.91;96.64;98769.42;4404129;80;28561;-87
2021/04/03 07:01:57;;;;;;;38.00;19.00;;;;;;;8.84;98.65;98775.89;4378288;80;28577;-86
2021/04/03 07:08:03;;;;;;;36.50;18.48;;;;;;;8.73;100.00;98780.97;4392025;80;28620;-89
2021/04/03 07:14:07;;;;;;;39.45;18.85;;;;;;;8.50;100.00;98790.52;4396104;80;28541;-82
2021/04/03 07:20:17;;;;;;;35.68;17.27;;;;;;;8.46;100.00;98793.84;4424778;80;28547;-86
2021/04/03 07:26:19;;;;;;;35.25;17.48;;;;;;;8.23;100.00;98805.52;4382218;79;28546;-85
2021/04/03 07:32:40;;;;;;;27.60;13.93;;;;;;;7.92;100.00;98810.44;4465097;80;28647;-84
2021/04/03 07:38:46;;;;;;;19.32;10.20;;;;;;;8.21;100.00;98814.28;4416550;80;28594;-85
2021/04/03 07:44:51;;;;;;;18.95;9.85;;;;;;;8.04;100.00;98823.94;4268258;81;28553;-93
2021/04/03 07:50:54;;;;;;;18.75;10.50;;;;;;;7.84;100.00;98846.33;4323436;81;28552;-90
2021/04/03 07:57:05;;;;;;;16.60;9.43;;;;;;;7.81;100.00;98845.44;4336354;81;28636;-88
2021/04/03 08:03:07;;;;;;;16.12;9.23;;;;;;;8.08;100.00;98852.73;4317140;81;28584;-92
2021/04/03 08:09:17;;;;;;;16.62;10.20;;;;;;;8.78;100.00;98856.19;4275864;81;28588;-86
2021/04/03 08:15:21;;;;;;;14.58;8.40;;;;;;;7.93;100.00;98869.12;4331707;81;28558;-82
2021/04/03 08:21:31;;;;;;;13.93;7.05;;;;;;;8.37;100.00;98871.02;4275734;82;28602;-82
2021/04/03 08:27:35;;;;;;;10.53;6.78;;;;;;;7.64;100.00;98878.58;4324626;80;28548;-82
2021/04/03 08:33:37;;;;;;;12.68;7.83;;;;;;;7.97;100.00;98872.69;4249463;83;28571;-83
2021/04/03 08:39:40;;;;;;;12.03;7.60;;;;;;;7.60;100.00;98880.05;4316607;82;28591;-81
2021/04/03 08:45:43;;;;;;;10.50;6.33;;;;;;;8.08;100.00;98871.48;4248106;81;28612;-83
2021/04/03 08:51:46;;;;;;;11.05;6.42;;;;;;;8.32;97.63;98870.84;4233924;82;28582;-82
2021/04/03 08:57:54;;;;;;;15.10;8.03;;;;;;;8.95;95.79;98872.99;4280051;80;28584;-83
2021/04/03 09:26:54;;;;;;;12.98;7.67;;;;;;;8.74;80.29;98887.14;4229450;83;28558;-86
2021/04/03 09:33:24;;;;;;;14.83;8.25;;;;;;;8.57;79.37;98892.27;4212788;82;28711;-83
2021/04/03 09:39:36;;;;;;;14.55;8.35;;;;;;;8.55;84.61;98893.55;4254947;82;28675;-82
2021/04/03 09:45:44;;;;;;;14.28;7.60;;;;;;;8.83;80.45;98899.75;4309790;81;28595;-82
2021/04/03 09:51:49;;;;;;;18.75;9.00;;;;;;;8.28;85.99;98894.59;4270424;82;28660;-82
2021/04/03 09:57:53;;;;;;;16.52;9.65;;;;;;;8.90;81.28;98903.19;4283352;81;28593;-82
2021/04/03 10:10:59;;;;;;;21.00;11.40;;;;;;;8.94;81.74;98914.26;4596107;76;86240;-83
2021/04/03 10:17:01;;;;;;;15.45;8.40;;;;;;;7.94;88.07;98908.23;4537310;76;28619;-82
2021/04/03 10:23:03;;;;;;;16.02;8.93;;;;;;;8.84;81.02;98908.59;4551021;76;28545;-83
2021/04/03 10:29:05;;;;;;;20.30;9.70;;;;;;;9.43;69.99;98904.09;4554006;78;28560;-85
2021/04/03 10:35:08;;;;;;;15.98;8.45;;;;;;;9.92;71.43;98908.58;4529363;78;28544;-90
2021/04/03 10:41:17;;;;;;;19.85;9.70;;;;;;;9.47;73.23;98916.00;4502355;78;28542;-85
2021/04/03 10:47:23;;;;;;;20.68;10.03;;;;;;;8.92;74.02;98924.39;4496871;78;28570;-84
2021/04/03 10:53:28;;;;;;;19.42;9.60;;;;;;;9.67;70.02;98915.74;4539191;78;28631;-87
2021/04/03 10:59:30;;;;;;;15.70;8.70;;;;;;;10.07;65.70;98908.95;4525213;78;28597;-84
2021/04/03 11:05:32;;;;;;;12.73;7.62;;;;;;;10.68;66.69;98902.60;4535582;78;28673;-86
2021/04/03 11:11:34;;;;;;;15.13;8.88;;;;;;;11.50;62.22;98908.83;4477405;78;28602;-85
2021/04/03 11:17:37;;;;;;;17.62;8.50;;;;;;;11.42;64.16;98901.13;4487643;79;28543;-86
2021/04/03 11:23:39;;;;;;;12.20;7.15;;;;;;;11.47;64.04;98907.97;4472397;79;28560;-85
2021/04/03 11:29:43;;;;;;;14.03;8.10;;;;;;;8.75;82.28;98926.34;4471600;79;28616;-85
2021/04/03 11:35:46;;;;;;;14.70;8.35;;;;;;;7.95;98.53;98947.36;4487377;78;28578;-81
2021/04/03 11:41:48;;;;;;;10.95;7.10;;;;;;;8.02;100.00;98948.64;4398946;79;28568;-84
2021/04/03 11:47:53;;;;;;;12.95;6.35;;;;;;;7.14;100.00;98975.02;4436907;78;28553;-83
2021/04/03 11:53:55;;;;;;;9.63;5.47;;;;;;;7.14;100.00;98980.36;4384380;79;28563;-84
2021/04/03 11:59:58;;;;;;;7.03;4.12;;;;;;;7.51;100.00;98986.51;4456770;79;28553;-83
2021/04/03 12:06:00;;;;;;;5.85;3.22;;;;;;;7.45;100.00;98973.47;4467650;78;28615;-83
2021/04/03 12:12:05;;;;;;;3.40;1.80;;;;;;;7.74;100.00;98987.30;4500588;79;28593;-84
2021/04/03 12:18:07;;;;;;;2.60;1.37;;;;;;;7.82;95.15;98986.26;4492401;79;28643;-86
2021/04/03 12:24:37;;;;;;;3.10;1.45;;;;;;;7.66;89.60;99007.64;4482695;79;28543;-83
2021/04/03 12:30:54;;;;;;;4.30;1.80;;;;;;;7.59;86.17;99006.84;4584044;75;86550;-85
2021/04/03 12:36:59;;;;;;;2.77;1.67;;;;;;;7.78;84.24;99013.13;4499315;78;28621;-84
2021/04/03 12:43:01;;;;;;;5.37;2.90;;;;;;;8.61;79.02;99019.95;4521597;78;28615;-85
2021/04/03 12:49:06;;;;;;;4.80;2.70;;;;;;;8.81;72.66;99010.41;4498770;78;28636;-83
2021/04/03 12:55:09;;;;;;;3.60;2.33;;;;;;;8.23;78.27;99026.48;4502455;78;28609;-85
2021/04/03 13:01:13;;;;;;;5.00;2.52;;;;;;;7.91;78.23;99018.94;4511634;78;28546;-84
2021/04/03 13:07:16;;;;;;;4.30;2.62;;;;;;;8.18;72.23;99019.61;4493077;78;28542;-85
2021/04/03 13:13:18;;;;;;;3.95;2.47;;;;;;;8.98;68.01;99010.66;4500526;78;28596;-82
2021/04/03 13:19:20;;;;;;;5.78;3.75;;;;;;;8.90;65.30;99021.67;4495671;78;28550;-82
2021/04/03 13:25:22;;;;;;;6.92;4.35;;;;;;;9.42;59.53;99014.62;4488806;77;28612;-83
2021/04/03 13:31:27;;;;;;;7.22;4.58;;;;;;;9.24;59.60;99009.28;4498781;78;28554;-83
2021/04/03 13:37:28;;;;;;;8.63;5.35;;;;;;;9.37;58.71;99014.48;4505519;78;28551;-83
2021/04/03 13:43:30;;;;;;;10.70;5.37;;;;;;;9.55;59.67;99004.80;4323880;81;28590;-85
2021/04/03 14:06:30;;;;;;;11.83;6.67;;;;;;;10.30;55.64;99013.48;4409458;78;72831;-83
2021/04/03 14:12:34;;;;;;;10.82;6.60;;;;;;;9.78;55.48;99030.12;4363509;80;28591;-83
2021/04/03 14:18:37;;;;;;;10.95;6.30;;;;;;;10.90;52.63;99014.95;4377835;80;28576;-83
2021/04/03 14:24:39;;;;;;;8.50;5.85;;;;;;;10.91;52.89;99026.81;4372313;80;28620;-83
2021/04/03 14:30:41;;;;;;;9.50;5.58;;;;;;;9.86;51.13;99030.62;4366402;81;28955;-83
2021/04/03 14:36:43;;;;;;;7.33;4.83;;;;;;;9.51;50.98;99043.84;4367438;80;28570;-82
2021/04/03 14:42:46;;;;;;;9.93;6.00;;;;;;;10.04;51.29;99035.13;4369910;81;28600;-83
2021/04/03 14:48:48;;;;;;;8.93;5.30;;;;;;;9.73;53.00;99032.14;4386479;80;28567;-83
2021/04/03 14:54:50;;;;;;;5.95;4.00;;;;;;;9.78;50.13;99034.95;4370873;80;28597;-83
2021/04/03 15:00:52;;;;;;;7.78;4.53;;;;;;;10.30;47.28;99023.72;4384394;80;28576;-84
2021/04/03 15:06:54;;;;;;;6.55;3.87;;;;;;;8.99;49.18;99035.09;4366872;80;28544;-85
2021/04/03 15:12:56;;;;;;;6.45;3.60;;;;;;;9.43;48.41;99031.05;4377446;80;28556;-85
2021/04/03 15:18:58;;;;;;;9.33;4.33;;;;;;;9.54;47.98;99017.39;4364540;81;28586;-85
2021/04/03 15:25:00;;;;;;;7.30;4.33;;;;;;;9.97;48.33;99017.47;4353251;81;28581;-87
2021/04/03 15:31:03;;;;;;;6.67;4.28;;;;;;;9.30;50.02;99016.41;4356504;80;28554;-84
2021/04/03 15:37:07;;;;;;;12.43;5.72;;;;;;;9.81;49.69;99015.72;4277467;82;28622;-88
2021/04/03 15:43:20;;;;;;;7.72;4.40;;;;;;;9.26;51.05;99027.30;4618204;76;86206;-85
2021/04/03 15:49:23;;;;;;;10.60;5.95;;;;;;;9.13;51.20;99031.77;4473237;79;28626;-84
2021/04/03 15:55:25;;;;;;;5.03;2.90;;;;;;;9.19;51.16;99034.08;4503636;78;28608;-84
2021/04/03 16:01:29;;;;;;;7.62;4.05;;;;;;;9.82;48.09;99040.69;4506199;78;28594;-86
2021/04/03 16:07:32;;;;;;;5.15;3.05;;;;;;;9.45;49.21;99030.80;4496737;78;28592;-84
2021/04/03 16:13:34;;;;;;;5.40;3.00;;;;;;;9.51;48.59;99035.28;4518582;77;28555;-85
2021/04/03 16:19:38;;;;;;;7.75;3.80;;;;;;;9.53;49.62;99035.05;4490693;78;28573;-86
2021/04/03 16:25:40;;;;;;;5.05;2.62;;;;;;;9.46;50.23;99046.69;4507763;78;28555;-80
2021/04/03 16:31:43;;;;;;;4.92;2.77;;;;;;;9.76;50.27;99048.63;4499380;78;28542;-85
2021/04/03 16:37:47;;;;;;;3.60;2.15;;;;;;;9.22;50.14;99053.75;4503483;78;28613;-80
2021/04/03 16:43:50;;;;;;;4.62;2.87;;;;;;;8.87;50.30;99061.00;4512086;78;28666;-84
2021/04/03 16:49:52;;;;;;;5.17;2.70;;;;;;;7.14;74.47;99127.92;4494296;78;28566;-86
2021/04/03 16:55:54;;;;;;;5.20;2.75;;;;;;;7.39;83.84;99112.89;4503615;78;28566;-85
2021/04/03 17:01:56;;;;;;;3.25;2.37;;;;;;;7.73;84.13;99114.12;4506762;78;28555;-83
2021/04/03 17:08:03;;;;;;;3.83;2.00;;;;;;;7.70;84.57;99105.70;4492492;78;28543;-82
2021/04/03 17:14:05;;;;;;;3.22;1.80;;;;;;;7.73;89.74;99106.63;4501754;78;28623;-83
2021/04/03 17:20:11;;;;;;;2.92;1.70;;;;;;;7.87;85.79;99113.58;4493868;78;28563;-82
2021/04/03 17:26:12;;;;;;;2.35;1.60;;;;;;;7.81;87.47;99113.09;4479009;78;28547;-82
2021/04/03 17:32:17;;;;;;;3.77;1.62;;;;;;;7.73;85.55;99124.84;4492611;78;28586;-82
2021/04/03 17:38:20;;;;;;;2.77;1.70;;;;;;;7.51;86.84;99125.09;4511329;78;28660;-81
2021/04/03 17:44:22;;;;;;;3.70;1.95;;;;;;;7.46;97.40;99132.11;4501147;78;28633;-82
2021/04/03 17:50:24;;;;;;;3.87;1.90;;;;;;;7.52;92.21;99146.00;4493008;78;28588;-82
2021/04/03 17:56:26;;;;;;;5.28;2.08;;;;;;;7.20;92.99;99144.48;4500093;78;28566;-84
2021/04/03 18:02:29;;;;;;;3.77;1.67;;;;;;;7.10;92.17;99166.27;4507376;78;28916;-83
2021/04/03 18:08:32;;;;;;;2.83;1.85;;;;;;;6.75;97.08;99174.47;4496791;78;28621;-82
2021/04/03 18:14:37;;;;;;;2.52;1.67;;;;;;;6.60;97.65;99186.13;4508634;78;28570;-85
2021/04/03 18:20:51;;;;;;;3.62;1.52;;;;;;;6.42;100.00;99189.37;4575305;76;86839;-85
2021/04/03 18:26:56;;;;;;;2.43;1.50;;;;;;;6.40;100.00;99178.06;4506418;77;28563;-83
2021/04/03 18:33:00;;;;;;;4.00;2.10;;;;;;;6.40;100.00;99178.06;4480563;77;44406;-83
2021/04/03 18:39:03;;;;;;;2.95;2.08;;;;;;;6.41;100.00;99202.41;4472966;77;28551;-82
2021/04/03 18:45:07;;;;;;;2.87;1.90;;;;;;;6.20;100.00;99206.04;4475393;77;28602;-84
2021/04/03 18:51:11;;;;;;;4.53;2.50;;;;;;;5.98;100.00;99211.41;4488516;77;28652;-83
2021/04/03 18:57:14;;;;;;;5.00;2.65;;;;;;;5.92;100.00;99225.56;4485447;77;28539;-86
2021/04/03 19:03:16;;;;;;;9.98;5.42;;;;;;;6.39;100.00;99226.64;4498124;78;28569;-86
2021/04/03 19:09:18;;;;;;;9.30;5.10;;;;;;;6.22;100.00;99236.03;4510569;77;28547;-86
2021/04/03 19:15:20;;;;;;;8.03;4.75;;;;;;;5.84;100.00;99249.23;4474308;77;28614;-85
2021/04/03 19:21:22;;;;;;;9.05;4.17;;;;;;;6.19;100.00;99245.75;4490720;78;28939;-85
2021/04/03 19:27:26;;;;;;;7.08;4.17;;;;;;;5.97;100.00;99242.63;4500524;77;28618;-84
2021/04/03 19:33:28;;;;;;;8.35;4.37;;;;;;;5.78;100.00;99249.50;4503843;77;28625;-83
2021/04/03 19:39:31;;;;;;;7.83;4.12;;;;;;;5.85;100.00;99253.02;4488457;77;28677;-85
2021/04/03 19:45:33;;;;;;;12.25;6.08;;;;;;;5.81;100.00;99260.27;4491841;78;28605;-83
2021/04/03 19:51:35;;;;;;;10.08;5.03;;;;;;;5.69;100.00;99276.00;4484040;77;28602;-86
2021/04/03 19:57:40;;;;;;;7.80;4.85;;;;;;;5.85;100.00;99268.22;4478458;77;28584;-85
2021/04/03 20:03:43;;;;;;;12.07;5.40;;;;;;;5.75;100.00;99283.22;4498651;77;28664;-83
2021/04/03 20:09:45;;;;;;;11.33;6.00;;;;;;;5.97;100.00;99291.17;4484654;77;28618;-83
2021/04/03 20:15:47;;;;;;;10.80;6.05;;;;;;;5.93;100.00;99293.92;4395936;79;28579;-86
2021/04/03 20:21:49;;;;;;;11.22;5.50;;;;;;;6.22;100.00;99296.91;4330972;80;28587;-86
2021/04/03 20:27:51;;;;;;;11.05;4.92;;;;;;;6.24;100.00;99299.40;4365344;80;28592;-85
2021/04/03 20:33:53;;;;;;;10.28;4.53;;;;;;;5.51;100.00;99319.12;4378900;79;28601;-85
2021/04/03 20:39:56;;;;;;;8.43;4.58;;;;;;;5.42;100.00;99321.94;4378664;80;28599;-84
2021/04/03 20:45:58;;;;;;;9.18;4.58;;;;;;;5.78;100.00;99315.36;4370279;80;28582;-82
2021/04/03 20:52:00;;;;;;;7.28;3.92;;;;;;;5.30;100.00;99332.77;4376953;80;28575;-83
2021/04/03 20:58:03;;;;;;;7.95;3.83;;;;;;;5.48;100.00;99332.35;4382791;80;28657;-81
2021/04/03 21:04:05;;;;;;;10.00;4.85;;;;;;;5.94;100.00;99339.61;4366694;79;28591;-82
2021/04/03 21:10:09;;;;;;;11.12;4.62;;;;;;;5.21;100.00;99337.40;4386935;80;28569;-83
2021/04/03 21:16:11;;;;;;;6.97;4.10;;;;;;;5.38;100.00;99339.31;4373158;79;28578;-84
2021/04/03 21:22:15;;;;;;;6.72;3.85;;;;;;;5.67;100.00;99347.38;4390818;79;28536;-83
2021/04/03 21:28:17;;;;;;;9.08;4.58;;;;;;;6.27;96.44;99341.72;4398403;80;29075;-83
2021/04/03 21:34:19;;;;;;;8.53;3.90;;;;;;;6.24;99.55;99348.80;4399905;79;28578;-83
2021/04/03 21:40:22;;;;;;;6.22;3.50;;;;;;;6.22;98.54;99346.83;4397001;80;28553;-83
2021/04/03 21:46:24;;;;;;;8.65;5.10;;;;;;;6.24;96.80;99350.12;4399700;80;28547;-84
2021/04/03 21:52:26;;;;;;;8.73;4.33;;;;;;;6.24;95.93;99348.80;4386012;79;28617;-83
2021/04/03 21:58:28;;;;;;;9.23;4.75;;;;;;;6.05;98.55;99360.98;4320205;80;28629;-83
2021/04/03 22:04:33;;;;;;;10.35;5.50;;;;;;;5.90;100.00;99364.52;4343850;80;28617;-83
2021/04/03 22:10:37;;;;;;;14.15;5.95;;;;;;;6.27;95.99;99363.92;4397703;79;28556;-82
2021/04/03 22:16:39;;;;;;;14.53;6.08;;;;;;;6.18;95.56;99372.25;4407989;79;28649;-83
2021/04/03 22:22:41;;;;;;;12.28;6.05;;;;;;;6.16;96.03;99375.64;4333502;81;28550;-84
2021/04/03 22:28:44;;;;;;;12.68;5.97;;;;;;;6.30;94.54;99371.22;4301891;81;28577;-83
2021/04/03 22:34:46;;;;;;;12.53;6.33;;;;;;;6.31;95.47;99375.05;4295682;81;28604;-83
2021/04/03 22:40:48;;;;;;;15.25;6.20;;;;;;;5.93;100.00;99386.81;4349482;80;28619;-84
2021/04/03 22:46:50;;;;;;;12.10;6.22;;;;;;;6.15;99.35;99385.50;4305177;80;28559;-85
2021/04/03 22:52:52;;;;;;;13.48;7.17;;;;;;;6.23;98.55;99381.86;4316349;81;28619;-84
2021/04/03 22:58:55;;;;;;;13.15;6.72;;;;;;;6.27;97.85;99388.45;4295710;81;28569;-83
2021/04/03 23:04:57;;;;;;;14.47;6.25;;;;;;;6.45;96.17;99381.80;4331565;81;28627;-84
2021/04/03 23:10:59;;;;;;;14.83;6.78;;;;;;;6.40;97.54;99391.23;4304888;81;28564;-84
2021/04/03 23:17:01;;;;;;;13.83;7.40;;;;;;;6.59;95.65;99386.72;4335742;80;28642;-83
2021/04/03 23:23:04;;;;;;;13.70;7.22;;;;;;;6.59;96.54;99390.20;4333532;80;28562;-84
2021/04/03 23:29:06;;;;;;;14.28;7.58;;;;;;;6.17;100.00;99399.48;4326992;81;28565;-84
2021/04/03 23:35:09;;;;;;;16.20;8.43;;;;;;;6.14;100.00;99398.52;4319130;80;28629;-82
2021/04/03 23:41:11;;;;;;;20.57;10.20;;;;;;;6.30;100.00;99392.09;4302932;80;28568;-84
2021/04/03 23:47:13;;;;;;;21.52;10.13;;;;;;;6.40;100.00;99389.90;4373012;79;28603;-82
2021/04/03 23:53:15;;;;;;;25.55;11.10;;;;;;;6.45;100.00;99383.95;4411628;79;28560;-83
2021/04/03 23:59:18;;;;;;;20.65;10.55;;;;;;;6.61;99.46;99388.67;4407531;79;28553;-82
